Time;durP1;ratioP1;P1;durP2;ratioP2;P2;SDS_P1;SDS_P2;PMS_P1;PMS_P2;Temp;Humidity;BMP_temperature;BMP_pressure;BME280_temperature;BME280_humidity;BME280_pressure;Samples;Min_cycle;Max_cycle;Signal;HPM_P1;HPM_P2
2022/11/24 00:01:47;;;;;;;;;;;;;;;;;;5021381;28;5251;-61
2022/11/24 00:04:13;;;;;;;;;;;;;;;;;;5046038;28;1956;-61
2022/11/24 00:06:38;;;;;;;;;;;;;;;;;;5029197;28;4941;-61
2022/11/24 00:09:03;;;;;;;;;;;;;;;;;;5029395;28;4953;-61
2022/11/24 00:11:30;;;;;;;;;;;;;;;;;;5027306;28;5149;-60
2022/11/24 00:13:56;;;;;;;;;;;;;;;;;;5011030;28;5400;-60
2022/11/24 00:16:25;;;;;;;;;;;;;;;;;;5011481;28;4806;-61
2022/11/24 00:18:51;;;;;;;;;;;;;;;;;;5022947;28;4959;-61
2022/11/24 00:21:16;;;;;;;;;;;;;;;;;;5035302;28;5061;-61
2022/11/24 00:23:42;;;;;;;;;;;;;;;;;;5027129;28;5435;-61
2022/11/24 00:26:07;;;;;;;;;;;;;;;;;;5010439;28;5013;-61
2022/11/24 00:28:32;;;;;;;;;;;;;;;;;;5010271;28;4992;-60
2022/11/24 00:30:58;;;;;;;;;;;;;;;;;;5025987;28;1160;-61
2022/11/24 00:33:23;;;;;;;;;;;;;;;;;;5012921;28;4457;-61
2022/11/24 00:35:57;;;;;;;;;;;;;;;;;;5027537;28;5300;-61
2022/11/24 00:38:23;;;;;;;;;;;;;;;;;;5029303;28;5040;-61
2022/11/24 00:40:48;;;;;;;;;;;;;;;;;;5029613;28;4965;-62
2022/11/24 00:43:13;;;;;;;;;;;;;;;;;;5016359;28;2296;-61
2022/11/24 00:45:39;;;;;;;;;;;;;;;;;;5024857;28;4835;-62
2022/11/24 00:48:04;;;;;;;;;;;;;;;;;;5029151;28;4962;-61
2022/11/24 00:50:29;;;;;;;;;;;;;;;;;;5022707;28;5188;-61
2022/11/24 00:52:54;;;;;;;;;;;;;;;;;;5018696;28;5609;-61
2022/11/24 00:55:20;;;;;;;;;;;;;;;;;;5014979;28;1802;-62
2022/11/24 00:57:45;;;;;;;;;;;;;;;;;;5016938;28;5029;-61
2022/11/24 01:00:12;;;;;;;;;;;;;;;;;;5038416;28;5023;-61
2022/11/24 01:02:37;;;;;;;;;;;;;;;;;;5017004;28;4686;-62
2022/11/24 01:05:02;;;;;;;;;;;;;;;;;;5009372;28;4460;-61
2022/11/24 01:07:28;;;;;;;;;;;;;;;;;;5019194;28;2054;-61
2022/11/24 01:09:53;;;;;;;;;;;;;;;;;;5023674;28;5011;-62
2022/11/24 01:12:18;;;;;;;;;;;;;;;;;;5004265;28;4921;-61
2022/11/24 01:14:43;;;;;;;;;;;;;;;;;;5009683;28;4603;-62
2022/11/24 01:17:09;;;;;;;;;;;;;;;;;;5012279;28;4802;-62
2022/11/24 01:19:34;;;;;;;;;;;;;;;;;;5026506;28;4491;-61
2022/11/24 01:21:59;;;;;;;;;;;;;;;;;;5009505;28;2175;-61
2022/11/24 01:24:24;;;;;;;;;;;;;;;;;;5024592;28;4525;-61
2022/11/24 01:26:50;;;;;;;;;;;;;;;;;;5026131;28;5406;-61
2022/11/24 01:29:15;;;;;;;;;;;;;;;;;;5025607;28;5168;-60
2022/11/24 01:31:40;;;;;;;;;;;;;;;;;;5028640;28;5271;-60
2022/11/24 01:34:05;;;;;;;;;;;;;;;;;;5020277;28;2290;-61
2022/11/24 01:36:31;;;;;;;;;;;;;;;;;;5024935;28;5077;-61
2022/11/24 01:38:56;;;;;;;;;;;;;;;;;;5028311;28;5102;-61
2022/11/24 01:41:22;;;;;;;;;;;;;;;;;;5028374;28;5149;-60
2022/11/24 01:43:48;;;;;;;;;;;;;;;;;;5024912;28;4957;-61
2022/11/24 01:46:25;;;;;;;;;;;;;;;;;;5019250;28;1175;-62
2022/11/24 01:48:53;;;;;;;;;;;;;;;;;;5028642;28;4393;-62
2022/11/24 01:51:21;;;;;;;;;;;;;;;;;;5024988;28;4801;-63
2022/11/24 01:53:52;;;;;;;;;;;;;;;;;;5046959;28;4948;-62
2022/11/24 01:56:17;;;;;;;;;;;;;;;;;;5027440;28;5018;-61
2022/11/24 01:58:42;;;;;;;;;;;;;;;;;;5017694;28;4679;-62
2022/11/24 02:01:07;;;;;;;;;;;;;;;;;;5009309;28;1040;-61
2022/11/24 02:03:33;;;;;;;;;;;;;;;;;;5008923;28;4438;-61
2022/11/24 02:06:19;;;;;;;;;;;;;;;;;;5021290;28;5164;-61
2022/11/24 02:08:47;;;;;;;;;;;;;;;;;;5005601;28;5014;-62
2022/11/24 02:11:12;;;;;;;;;;;;;;;;;;5023446;28;5136;-61
2022/11/24 02:13:37;;;;;;;;;;;;;;;;;;5018662;28;5049;-61
2022/11/24 02:16:04;;;;;;;;;;;;;;;;;;5023970;28;4811;-61
2022/11/24 02:18:29;;;;;;;;;;;;;;;;;;5024356;28;5071;-61
2022/11/24 02:20:54;;;;;;;;;;;;;;;;;;5017830;28;4978;-61
2022/11/24 02:23:28;;;;;;;;;;;;;;;;;;5017106;28;5097;-61
2022/11/24 02:25:58;;;;;;;;;;;;;;;;;;4994316;28;4705;-61
2022/11/24 02:28:23;;;;;;;;;;;;;;;;;;5020766;28;2294;-61
2022/11/24 02:30:48;;;;;;;;;;;;;;;;;;5021066;28;4910;-61
2022/11/24 02:33:14;;;;;;;;;;;;;;;;;;5027114;28;4931;-61
2022/11/24 02:35:39;;;;;;;;;;;;;;;;;;5022560;28;4836;-61
2022/11/24 02:38:04;;;;;;;;;;;;;;;;;;5027992;28;4439;-61
2022/11/24 02:40:29;;;;;;;;;;;;;;;;;;5028588;28;1046;-61
2022/11/24 02:42:56;;;;;;;;;;;;;;;;;;5023882;28;5122;-61
2022/11/24 02:45:21;;;;;;;;;;;;;;;;;;5026477;28;4975;-62
2022/11/24 02:47:47;;;;;;;;;;;;;;;;;;5042729;28;4493;-61
2022/11/24 02:50:12;;;;;;;;;;;;;;;;;;5028079;28;5014;-61
2022/11/24 02:52:37;;;;;;;;;;;;;;;;;;5028776;28;5108;-61
2022/11/24 02:55:03;;;;;;;;;;;;;;;;;;5026083;28;2258;-62
2022/11/24 02:57:28;;;;;;;;;;;;;;;;;;5011964;28;4475;-62
2022/11/24 02:59:53;;;;;;;;;;;;;;;;;;5014490;28;4931;-61
2022/11/24 03:02:18;;;;;;;;;;;;;;;;;;5011805;28;4627;-62
2022/11/24 03:04:44;;;;;;;;;;;;;;;;;;5026625;28;4545;-61
2022/11/24 03:07:09;;;;;;;;;;;;;;;;;;5029463;28;2413;-62
2022/11/24 03:09:34;;;;;;;;;;;;;;;;;;5007751;28;5039;-62
2022/11/24 03:11:59;;;;;;;;;;;;;;;;;;5026176;28;4998;-62
2022/11/24 03:14:25;;;;;;;;;;;;;;;;;;5024852;28;4470;-62
2022/11/24 03:16:50;;;;;;;;;;;;;;;;;;5019166;28;5130;-62
2022/11/24 03:19:15;;;;;;;;;;;;;;;;;;5021055;28;2177;-63
2022/11/24 03:21:41;;;;;;;;;;;;;;;;;;5014230;28;4411;-62
2022/11/24 03:24:06;;;;;;;;;;;;;;;;;;5012180;28;5019;-62
2022/11/24 03:26:31;;;;;;;;;;;;;;;;;;5011132;28;4995;-61
2022/11/24 03:28:57;;;;;;;;;;;;;;;;;;5041879;28;4761;-61
2022/11/24 03:31:22;;;;;;;;;;;;;;;;;;5004515;28;2347;-60
2022/11/24 03:33:48;;;;;;;;;;;;;;;;;;5016875;28;4975;-61
2022/11/24 03:36:13;;;;;;;;;;;;;;;;;;5004584;28;4608;-60
2022/11/24 03:38:38;;;;;;;;;;;;;;;;;;5000358;28;5236;-61
2022/11/24 03:41:03;;;;;;;;;;;;;;;;;;5014713;28;5153;-61
2022/11/24 03:43:29;;;;;;;;;;;;;;;;;;5030998;28;1969;-62
2022/11/24 03:45:54;;;;;;;;;;;;;;;;;;5025691;28;4824;-61
2022/11/24 03:48:20;;;;;;;;;;;;;;;;;;5014408;28;4921;-62
2022/11/24 03:50:52;;;;;;;;;;;;;;;;;;5002453;28;5294;-62
2022/11/24 03:53:17;;;;;;;;;;;;;;;;;;5003958;28;5246;-62
2022/11/24 03:55:42;;;;;;;;;;;;;;;;;;4995525;28;5235;-61
2022/11/24 03:58:07;;;;;;;;;;;;;;;;;;5011070;28;2184;-61
2022/11/24 04:00:33;;;;;;;;;;;;;;;;;;5010613;28;5077;-61
2022/11/24 04:03:02;;;;;;;;;;;;;;;;;;5018770;28;4596;-60
2022/11/24 04:05:27;;;;;;;;;;;;;;;;;;5023661;28;4999;-61
2022/11/24 04:07:56;;;;;;;;;;;;;;;;;;5024706;28;5006;-61
2022/11/24 04:10:22;;;;;;;;;;;;;;;;;;5021462;28;2385;-60
2022/11/24 04:12:47;;;;;;;;;;;;;;;;;;5009494;28;4641;-60
2022/11/24 04:15:16;;;;;;;;;;;;;;;;;;5014113;28;5110;-60
2022/11/24 04:17:42;;;;;;;;;;;;;;;;;;5030492;28;5075;-61
2022/11/24 04:20:07;;;;;;;;;;;;;;;;;;5010362;28;4852;-61
2022/11/24 04:22:32;;;;;;;;;;;;;;;;;;5026108;28;5116;-61
2022/11/24 04:24:58;;;;;;;;;;;;;;;;;;5017238;28;2144;-61
2022/11/24 04:27:23;;;;;;;;;;;;;;;;;;5010370;28;4828;-61
2022/11/24 04:29:49;;;;;;;;;;;;;;;;;;5010095;28;4737;-61
2022/11/24 04:32:15;;;;;;;;;;;;;;;;;;5012045;28;4926;-62
2022/11/24 04:34:40;;;;;;;;;;;;;;;;;;5029837;28;4801;-61
2022/11/24 04:37:05;;;;;;;;;;;;;;;;;;5029002;28;882;-61
2022/11/24 04:39:30;;;;;;;;;;;;;;;;;;5018742;28;5323;-61
2022/11/24 04:41:56;;;;;;;;;;;;;;;;;;5016102;28;5050;-61
2022/11/24 04:44:21;;;;;;;;;;;;;;;;;;5029486;28;5042;-61
2022/11/24 04:46:46;;;;;;;;;;;;;;;;;;5017134;28;5112;-60
2022/11/24 04:49:12;;;;;;;;;;;;;;;;;;5024412;28;2257;-60
2022/11/24 04:51:38;;;;;;;;;;;;;;;;;;5026553;28;4981;-60
2022/11/24 04:54:03;;;;;;;;;;;;;;;;;;5026651;28;4931;-61
2022/11/24 04:56:28;;;;;;;;;;;;;;;;;;5029748;28;4589;-61
2022/11/24 04:58:54;;;;;;;;;;;;;;;;;;5023766;28;4497;-61
2022/11/24 05:01:19;;;;;;;;;;;;;;;;;;5010297;28;1006;-61
2022/11/24 05:03:44;;;;;;;;;;;;;;;;;;5010349;28;5010;-60
2022/11/24 05:06:09;;;;;;;;;;;;;;;;;;5012791;28;4959;-61
2022/11/24 05:08:35;;;;;;;;;;;;;;;;;;5027226;28;4601;-61
2022/11/24 05:11:03;;;;;;;;;;;;;;;;;;5028066;28;4915;-63
2022/11/24 05:13:29;;;;;;;;;;;;;;;;;;5014506;28;2328;-61
2022/11/24 05:15:55;;;;;;;;;;;;;;;;;;5010377;28;4890;-61
2022/11/24 05:18:21;;;;;;;;;;;;;;;;;;5023942;28;5036;-61
2022/11/24 05:20:46;;;;;;;;;;;;;;;;;;5019582;28;5128;-61
2022/11/24 05:23:11;;;;;;;;;;;;;;;;;;5010793;28;4636;-60
2022/11/24 05:25:36;;;;;;;;;;;;;;;;;;5019286;28;5219;-61
2022/11/24 05:28:02;;;;;;;;;;;;;;;;;;4998997;28;2086;-61
2022/11/24 05:30:28;;;;;;;;;;;;;;;;;;5000389;28;4691;-61
2022/11/24 05:32:53;;;;;;;;;;;;;;;;;;5003275;28;5124;-61
2022/11/24 05:35:18;;;;;;;;;;;;;;;;;;5005118;28;4669;-61
2022/11/24 05:37:44;;;;;;;;;;;;;;;;;;4989847;28;5169;-61
2022/11/24 05:40:09;;;;;;;;;;;;;;;;;;4990490;28;2486;-61
2022/11/24 05:42:40;;;;;;;;;;;;;;;;;;4989334;28;5462;-61
2022/11/24 05:45:10;;;;;;;;;;;;;;;;;;4993308;28;5224;-60
2022/11/24 05:47:36;;;;;;;;;;;;;;;;;;5004719;28;5213;-61
2022/11/24 05:50:01;;;;;;;;;;;;;;;;;;4991738;28;4888;-61
2022/11/24 05:52:26;;;;;;;;;;;;;;;;;;5001078;28;2310;-61
2022/11/24 05:54:51;;;;;;;;;;;;;;;;;;4988359;28;4453;-61
2022/11/24 05:57:17;;;;;;;;;;;;;;;;;;4989365;28;5050;-61
2022/11/24 05:59:42;;;;;;;;;;;;;;;;;;4999520;28;4641;-61
2022/11/24 06:02:08;;;;;;;;;;;;;;;;;;5003139;28;5029;-62
2022/11/24 06:04:34;;;;;;;;;;;;;;;;;;5008450;28;5406;-61
2022/11/24 06:06:59;;;;;;;;;;;;;;;;;;5015799;28;2077;-61
2022/11/24 06:09:24;;;;;;;;;;;;;;;;;;5018668;28;5122;-61
2022/11/24 06:11:49;;;;;;;;;;;;;;;;;;5027912;28;5119;-61
2022/11/24 06:14:15;;;;;;;;;;;;;;;;;;5028034;28;4607;-61
2022/11/24 06:16:40;;;;;;;;;;;;;;;;;;5019648;28;4938;-61
2022/11/24 06:19:05;;;;;;;;;;;;;;;;;;5021899;28;2289;-61
2022/11/24 06:21:31;;;;;;;;;;;;;;;;;;5008243;28;5472;-61
2022/11/24 06:23:56;;;;;;;;;;;;;;;;;;5010700;28;5199;-61
2022/11/24 06:26:22;;;;;;;;;;;;;;;;;;5016516;28;5188;-61
2022/11/24 06:28:47;;;;;;;;;;;;;;;;;;5011889;28;4502;-61
2022/11/24 06:31:12;;;;;;;;;;;;;;;;;;5021078;28;2334;-61
2022/11/24 06:33:37;;;;;;;;;;;;;;;;;;5029789;28;5007;-60
2022/11/24 06:36:04;;;;;;;;;;;;;;;;;;5028145;28;4676;-61
2022/11/24 06:38:29;;;;;;;;;;;;;;;;;;5031488;28;5122;-62
2022/11/24 06:40:58;;;;;;;;;;;;;;;;;;5027007;28;4835;-60
2022/11/24 06:43:25;;;;;;;;;;;;;;;;;;5030292;28;2711;-61
2022/11/24 06:45:50;;;;;;;;;;;;;;;;;;5032174;28;5025;-61
2022/11/24 06:48:15;;;;;;;;;;;;;;;;;;5040577;28;5270;-61
2022/11/24 06:50:41;;;;;;;;;;;;;;;;;;5025024;28;4901;-62
2022/11/24 06:53:06;;;;;;;;;;;;;;;;;;5022532;28;5163;-61
2022/11/24 06:55:32;;;;;;;;;;;;;;;;;;5021209;28;5442;-66
2022/11/24 06:57:57;;;;;;;;;;;;;;;;;;5025579;28;2323;-61
2022/11/24 07:00:23;;;;;;;;;;;;;;;;;;5023175;28;5066;-59
2022/11/24 07:02:48;;;;;;;;;;;;;;;;;;5017469;28;4430;-60
2022/11/24 07:05:13;;;;;;;;;;;;;;;;;;5025370;28;4979;-59
2022/11/24 07:07:39;;;;;;;;;;;;;;;;;;5023709;28;5158;-59
2022/11/24 07:10:04;;;;;;;;;;;;;;;;;;5025703;28;2511;-58
2022/11/24 07:12:32;;;;;;;;;;;;;;;;;;5013960;28;5056;-59
2022/11/24 07:14:58;;;;;;;;;;;;;;;;;;5020701;28;4532;-58
2022/11/24 07:17:23;;;;;;;;;;;;;;;;;;5013610;28;4793;-58
2022/11/24 07:19:48;;;;;;;;;;;;;;;;;;5022561;28;4535;-58
2022/11/24 07:22:13;;;;;;;;;;;;;;;;;;5017819;28;2707;-58
2022/11/24 07:24:39;;;;;;;;;;;;;;;;;;5016478;28;5164;-59
2022/11/24 07:27:04;;;;;;;;;;;;;;;;;;5023140;28;4954;-59
2022/11/24 07:29:29;;;;;;;;;;;;;;;;;;5025285;28;4516;-60
2022/11/24 07:31:54;;;;;;;;;;;;;;;;;;5018318;28;5132;-58
2022/11/24 07:34:20;;;;;;;;;;;;;;;;;;5019101;28;2442;-57
2022/11/24 07:36:45;;;;;;;;;;;;;;;;;;5019893;28;4487;-58
2022/11/24 07:39:10;;;;;;;;;;;;;;;;;;5016169;28;4674;-58
2022/11/24 07:41:36;;;;;;;;;;;;;;;;;;5006134;28;4734;-58
2022/11/24 07:44:01;;;;;;;;;;;;;;;;;;5016133;28;5167;-57
2022/11/24 07:46:26;;;;;;;;;;;;;;;;;;5025741;28;2129;-57
2022/11/24 07:48:52;;;;;;;;;;;;;;;;;;5030578;28;5157;-57
2022/11/24 07:51:17;;;;;;;;;;;;;;;;;;5025422;28;4536;-57
2022/11/24 07:53:42;;;;;;;;;;;;;;;;;;5018217;28;4582;-57
2022/11/24 07:56:08;;;;;;;;;;;;;;;;;;5027888;28;4485;-60
2022/11/24 07:58:34;;;;;;;;;;;;;;;;;;5024910;28;4541;-59
2022/11/24 08:01:07;;;;;;;;;;;;;;;;;;5014007;28;2330;-61
2022/11/24 08:03:33;;;;;;;;;;;;;;;;;;5010472;28;4492;-60
2022/11/24 08:05:58;;;;;;;;;;;;;;;;;;5037982;28;4933;-60
2022/11/24 08:08:24;;;;;;;;;;;;;;;;;;5028492;28;4736;-60
2022/11/24 08:10:49;;;;;;;;;;;;;;;;;;5024846;28;4705;-60
2022/11/24 08:13:15;;;;;;;;;;;;;;;;;;5022178;28;2084;-60
2022/11/24 08:15:40;;;;;;;;;;;;;;;;;;5013722;28;4715;-60
2022/11/24 08:18:06;;;;;;;;;;;;;;;;;;4999280;28;4473;-60
2022/11/24 08:20:32;;;;;;;;;;;;;;;;;;4999272;28;4549;-60
2022/11/24 08:23:00;;;;;;;;;;;;;;;;;;4988491;28;4584;-60
2022/11/24 08:25:30;;;;;;;;;;;;;;;;;;5007850;28;1964;-60
2022/11/24 08:27:57;;;;;;;;;;;;;;;;;;5008217;28;4513;-60
2022/11/24 08:30:22;;;;;;;;;;;;;;;;;;5021896;28;4547;-60
2022/11/24 08:32:47;;;;;;;;;;;;;;;;;;5004968;28;5040;-60
2022/11/24 08:35:13;;;;;;;;;;;;;;;;;;5008440;28;5008;-60
2022/11/24 08:37:38;;;;;;;;;;;;;;;;;;5027593;28;5065;-60
2022/11/24 08:40:04;;;;;;;;;;;;;;;;;;5028477;28;1168;-60
2022/11/24 08:42:29;;;;;;;;;;;;;;;;;;5031025;28;5076;-61
2022/11/24 08:44:54;;;;;;;;;;;;;;;;;;5025119;28;5120;-60
2022/11/24 08:47:20;;;;;;;;;;;;;;;;;;5029174;28;4553;-61
2022/11/24 08:49:45;;;;;;;;;;;;;;;;;;5012567;28;5099;-60
2022/11/24 08:52:11;;;;;;;;;;;;;;;;;;5009656;28;2101;-61
2022/11/24 08:54:36;;;;;;;;;;;;;;;;;;5009800;28;4831;-60
2022/11/24 08:57:01;;;;;;;;;;;;;;;;;;5025016;28;4589;-60
2022/11/24 08:59:26;;;;;;;;;;;;;;;;;;5028079;28;5340;-61
2022/11/24 09:01:52;;;;;;;;;;;;;;;;;;5020773;28;5285;-60
2022/11/24 09:04:17;;;;;;;;;;;;;;;;;;5025324;28;2523;-60
2022/11/24 09:06:42;;;;;;;;;;;;;;;;;;5026723;28;5079;-60
2022/11/24 09:09:08;;;;;;;;;;;;;;;;;;5010979;28;4914;-60
2022/11/24 09:11:33;;;;;;;;;;;;;;;;;;5033422;28;4525;-56
2022/11/24 09:13:59;;;;;;;;;;;;;;;;;;5032717;28;4779;-57
2022/11/24 09:16:25;;;;;;;;;;;;;;;;;;5016662;28;4675;-63
2022/11/24 09:19:03;;;;;;;;;;;;;;;;;;5025364;28;5104;-64
2022/11/24 09:21:28;;;;;;;;;;;;;;;;;;5029545;28;4852;-62
2022/11/24 09:23:54;;;;;;;;;;;;;;;;;;5022492;28;4595;-62
2022/11/24 09:26:20;;;;;;;;;;;;;;;;;;4996480;28;5111;-68
2022/11/24 09:28:46;;;;;;;;;;;;;;;;;;5018813;28;5057;-58
2022/11/24 09:31:12;;;;;;;;;;;;;;;;;;5010357;28;1516;-57
2022/11/24 09:33:38;;;;;;;;;;;;;;;;;;5011121;28;5475;-58
2022/11/24 09:36:03;;;;;;;;;;;;;;;;;;5007097;28;4924;-58
2022/11/24 09:38:29;;;;;;;;;;;;;;;;;;5018423;28;5242;-58
2022/11/24 09:40:54;;;;;;;;;;;;;;;;;;5017575;28;4559;-69
2022/11/24 09:43:23;;;;;;;;;;;;;;;;;;5020444;28;2098;-70
2022/11/24 09:45:50;;;;;;;;;;;;;;;;;;5014192;28;5074;-69
2022/11/24 09:48:21;;;;;;;;;;;;;;;;;;5020487;28;5158;-72
2022/11/24 09:50:47;;;;;;;;;;;;;;;;;;4994727;28;4804;-69
2022/11/24 09:53:31;;;;;;;;;;;;;;;;;;5021450;28;5078;-68
2022/11/24 09:56:17;;;;;;;;;;;;;;;;;;4993036;28;5024;-69
2022/11/24 09:59:03;;;;;;;;;;;;;;;;;;4995195;28;5125;-68
2022/11/24 10:01:29;;;;;;;;;;;;;;;;;;5000194;28;2334;-68
2022/11/24 10:03:54;;;;;;;;;;;;;;;;;;5004103;28;5008;-68
2022/11/24 10:06:19;;;;;;;;;;;;;;;;;;5002783;28;4695;-69
2022/11/24 10:08:57;;;;;;;;;;;;;;;;;;4998800;28;5278;-69
2022/11/24 10:11:27;;;;;;;;;;;;;;;;;;4992017;28;4576;-70
2022/11/24 10:13:55;;;;;;;;;;;;;;;;;;5006295;28;5091;-70
2022/11/24 10:16:27;;;;;;;;;;;;;;;;;;4997006;28;4757;-70
2022/11/24 10:19:01;;;;;;;;;;;;;;;;;;5007486;28;4961;-68
2022/11/24 10:21:32;;;;;;;;;;;;;;;;;;5004161;28;4660;-70
2022/11/24 10:23:57;;;;;;;;;;;;;;;;;;4998586;28;5409;-70
2022/11/24 10:26:30;;;;;;;;;;;;;;;;;;5008995;28;5164;-67
2022/11/24 10:28:55;;;;;;;;;;;;;;;;;;5010470;28;4631;-68
2022/11/24 10:31:22;;;;;;;;;;;;;;;;;;5028572;28;2329;-69
2022/11/24 10:33:48;;;;;;;;;;;;;;;;;;5021803;28;5015;-68
2022/11/24 10:36:20;;;;;;;;;;;;;;;;;;5019902;28;4537;-69
2022/11/24 10:39:05;;;;;;;;;;;;;;;;;;5020801;28;4649;-68
2022/11/24 10:41:36;;;;;;;;;;;;;;;;;;5028350;28;5100;-68
2022/11/24 10:44:01;;;;;;;;;;;;;;;;;;5026641;28;5056;-68
2022/11/24 10:46:27;;;;;;;;;;;;;;;;;;5022163;28;2400;-58
2022/11/24 10:48:54;;;;;;;;;;;;;;;;;;5029155;28;4646;-57
2022/11/24 10:51:34;;;;;;;;;;;;;;;;;;5021833;28;4433;-57
2022/11/24 10:54:00;;;;;;;;;;;;;;;;;;5042762;28;4987;-57
2022/11/24 10:56:25;;;;;;;;;;;;;;;;;;5042600;28;4922;-57
2022/11/24 10:58:51;;;;;;;;;;;;;;;;;;5030904;28;5045;-58
2022/11/24 11:01:16;;;;;;;;;;;;;;;;;;5031603;28;1361;-58
2022/11/24 11:03:45;;;;;;;;;;;;;;;;;;5030827;28;4898;-57
2022/11/24 11:06:11;;;;;;;;;;;;;;;;;;5031319;28;4993;-57
2022/11/24 11:08:37;;;;;;;;;;;;;;;;;;5019001;28;4522;-57
2022/11/24 11:11:15;;;;;;;;;;;;;;;;;;5006854;28;4481;-58
2022/11/24 11:13:52;;;;;;;;;;;;;;;;;;5009492;28;5056;-60
2022/11/24 11:16:36;;;;;;;;;;;;;;;;;;5002867;28;4889;-61
2022/11/24 11:19:02;;;;;;;;;;;;;;;;;;5003801;28;5010;-61
2022/11/24 11:21:27;;;;;;;;;;;;;;;;;;5024785;28;5102;-62
2022/11/24 11:23:53;;;;;;;;;;;;;;;;;;5025190;28;5758;-61
2022/11/24 11:26:26;;;;;;;;;;;;;;;;;;5016960;28;5214;-63
2022/11/24 11:28:58;;;;;;;;;;;;;;;;;;5014774;28;5137;-63
2022/11/24 11:31:23;;;;;;;;;;;;;;;;;;5021788;28;2231;-61
2022/11/24 11:33:55;;;;;;;;;;;;;;;;;;5023404;28;5231;-62
2022/11/24 11:36:20;;;;;;;;;;;;;;;;;;5016146;28;4544;-59
2022/11/24 11:38:46;;;;;;;;;;;;;;;;;;5024676;28;4622;-59
2022/11/24 11:41:23;;;;;;;;;;;;;;;;;;5025135;28;5160;-59
2022/11/24 11:43:49;;;;;;;;;;;;;;;;;;5010939;28;5081;-59
2022/11/24 11:46:15;;;;;;;;;;;;;;;;;;5007763;28;2242;-59
2022/11/24 11:48:43;;;;;;;;;;;;;;;;;;5008439;28;5111;-59
2022/11/24 11:51:08;;;;;;;;;;;;;;;;;;5005916;28;4983;-60
2022/11/24 11:53:37;;;;;;;;;;;;;;;;;;5007187;28;4847;-60
2022/11/24 11:56:19;;;;;;;;;;;;;;;;;;4993413;28;4984;-60
2022/11/24 11:59:05;;;;;;;;;;;;;;;;;;5009021;28;4885;-60
2022/11/24 12:01:36;;;;;;;;;;;;;;;;;;4990344;28;1161;-59
2022/11/24 12:04:05;;;;;;;;;;;;;;;;;;5010503;28;5135;-60
2022/11/24 12:06:51;;;;;;;;;;;;;;;;;;5026303;28;4512;-60
2022/11/24 12:09:24;;;;;;;;;;;;;;;;;;5023436;28;5447;-61
2022/11/24 12:11:58;;;;;;;;;;;;;;;;;;4976172;28;1412158;-59
2022/11/24 12:14:23;;;;;;;;;;;;;;;;;;5041809;28;5113;-61
2022/11/24 12:16:54;;;;;;;;;;;;;;;;;;5029577;28;5251;-59
2022/11/24 12:19:26;;;;;;;;;;;;;;;;;;5033812;28;2033;-59
2022/11/24 12:22:10;;;;;;;;;;;;;;;;;;5040347;28;5017;-60
2022/11/24 12:24:41;;;;;;;;;;;;;;;;;;5005661;28;5100;-60
2022/11/24 12:27:19;;;;;;;;;;;;;;;;;;5016449;28;5104;-59
2022/11/24 12:29:51;;;;;;;;;;;;;;;;;;5005752;28;5027;-59
2022/11/24 12:32:35;;;;;;;;;;;;;;;;;;4991936;28;5047;-59
2022/11/24 12:35:19;;;;;;;;;;;;;;;;;;5017561;28;5099;-60
2022/11/24 12:37:48;;;;;;;;;;;;;;;;;;5040261;28;4544;-59
2022/11/24 12:40:32;;;;;;;;;;;;;;;;;;5039153;28;1916;-59
2022/11/24 12:43:11;;;;;;;;;;;;;;;;;;5009890;28;4703;-59
2022/11/24 12:45:45;;;;;;;;;;;;;;;;;;5032492;28;5071;-60
2022/11/24 12:48:17;;;;;;;;;;;;;;;;;;5029500;28;4978;-60
2022/11/24 12:50:42;;;;;;;;;;;;;;;;;;5027636;28;5247;-60
2022/11/24 12:53:12;;;;;;;;;;;;;;;;;;5018132;28;4925;-60
2022/11/24 12:55:39;;;;;;;;;;;;;;;;;;5024690;28;4488;-60
2022/11/24 12:58:04;;;;;;;;;;;;;;;;;;5025172;28;1073;-60
2022/11/24 13:00:41;;;;;;;;;;;;;;;;;;5011330;28;4414;-60
2022/11/24 13:03:09;;;;;;;;;;;;;;;;;;5024614;28;5065;-59
2022/11/24 13:05:35;;;;;;;;;;;;;;;;;;5017399;28;4522;-59
2022/11/24 13:08:00;;;;;;;;;;;;;;;;;;5019445;28;5027;-58
2022/11/24 13:10:26;;;;;;;;;;;;;;;;;;5042959;28;2055;-60
2022/11/24 13:12:58;;;;;;;;;;;;;;;;;;5027736;28;4459;-60
2022/11/24 13:15:23;;;;;;;;;;;;;;;;;;5020226;28;4914;-59
2022/11/24 13:17:48;;;;;;;;;;;;;;;;;;5023693;28;4718;-59
2022/11/24 13:20:14;;;;;;;;;;;;;;;;;;5028084;28;5231;-61
2022/11/24 13:22:39;;;;;;;;;;;;;;;;;;5028823;28;4969;-61
2022/11/24 13:25:12;;;;;;;;;;;;;;;;;;5034411;28;2053;-61
2022/11/24 13:27:38;;;;;;;;;;;;;;;;;;5007698;28;4612;-61
2022/11/24 13:30:10;;;;;;;;;;;;;;;;;;5008733;28;5427;-60
2022/11/24 13:32:35;;;;;;;;;;;;;;;;;;5028862;28;5076;-61
2022/11/24 13:35:11;;;;;;;;;;;;;;;;;;5027048;28;5061;-60
2022/11/24 13:37:36;;;;;;;;;;;;;;;;;;5026010;28;4484;-62
2022/11/24 13:40:10;;;;;;;;;;;;;;;;;;5017646;28;2422;-64
2022/11/24 13:43:00;;;;;;;;;;;;;;;;;;5028421;28;4968;-62
2022/11/24 13:45:37;;;;;;;;;;;;;;;;;;5026542;28;5214;-61
2022/11/24 13:48:17;;;;;;;;;;;;;;;;;;5017550;28;4962;-61
2022/11/24 13:51:02;;;;;;;;;;;;;;;;;;5026802;28;4964;-61
2022/11/24 13:53:41;;;;;;;;;;;;;;;;;;5017423;28;5086;-63
2022/11/24 13:56:12;;;;;;;;;;;;;;;;;;5012889;28;5012;-63
2022/11/24 13:58:41;;;;;;;;;;;;;;;;;;5008478;28;4711;-61
2022/11/24 14:01:21;;;;;;;;;;;;;;;;;;5012294;28;1134;-61
2022/11/24 14:03:57;;;;;;;;;;;;;;;;;;5040702;28;4994;-62
2022/11/24 14:06:29;;;;;;;;;;;;;;;;;;5028357;28;5042;-62
2022/11/24 14:08:55;;;;;;;;;;;;;;;;;;5024287;28;5067;-61
2022/11/24 14:11:21;;;;;;;;;;;;;;;;;;5026907;28;5017;-63
2022/11/24 14:13:46;;;;;;;;;;;;;;;;;;5026957;28;4463;-63
2022/11/24 14:16:14;;;;;;;;;;;;;;;;;;5028060;28;4917;-62
2022/11/24 14:18:40;;;;;;;;;;;;;;;;;;5022022;28;4540;-62
2022/11/24 14:21:15;;;;;;;;;;;;;;;;;;5028395;28;5114;-61
2022/11/24 14:23:43;;;;;;;;;;;;;;;;;;5023979;28;5218;-63
2022/11/24 14:26:13;;;;;;;;;;;;;;;;;;5017872;28;5108;-64
2022/11/24 14:28:38;;;;;;;;;;;;;;;;;;5027047;28;4849;-61
2022/11/24 14:31:07;;;;;;;;;;;;;;;;;;5013862;28;1429;-60
2022/11/24 14:33:32;;;;;;;;;;;;;;;;;;5010246;28;4982;-60
2022/11/24 14:35:57;;;;;;;;;;;;;;;;;;5026211;28;4979;-60
2022/11/24 14:38:22;;;;;;;;;;;;;;;;;;5025553;28;4580;-60
2022/11/24 14:40:51;;;;;;;;;;;;;;;;;;5027613;28;5050;-61
2022/11/24 14:43:16;;;;;;;;;;;;;;;;;;5038872;28;2504;-58
2022/11/24 14:45:48;;;;;;;;;;;;;;;;;;5027776;28;5118;-59
2022/11/24 14:48:14;;;;;;;;;;;;;;;;;;5028440;28;5367;-58
2022/11/24 14:50:40;;;;;;;;;;;;;;;;;;5031451;28;5084;-59
2022/11/24 14:53:05;;;;;;;;;;;;;;;;;;5031284;28;5056;-59
2022/11/24 14:55:31;;;;;;;;;;;;;;;;;;5025943;28;2773;-60
2022/11/24 14:57:56;;;;;;;;;;;;;;;;;;5020202;28;5069;-66
2022/11/24 15:00:29;;;;;;;;;;;;;;;;;;5015603;28;5079;-63
2022/11/24 15:02:54;;;;;;;;;;;;;;;;;;5031831;28;5057;-63
2022/11/24 15:05:23;;;;;;;;;;;;;;;;;;5015092;28;5178;-62
2022/11/24 15:07:48;;;;;;;;;;;;;;;;;;5015912;28;5215;-62
2022/11/24 15:10:19;;;;;;;;;;;;;;;;;;5019019;28;2163;-61
2022/11/24 15:12:52;;;;;;;;;;;;;;;;;;5012098;28;6418;-59
2022/11/24 15:15:19;;;;;;;;;;;;;;;;;;5027023;28;5762;-59
2022/11/24 15:18:10;;;;;;;;;;;;;;;;;;5016449;28;5052;-59
2022/11/24 15:20:42;;;;;;;;;;;;;;;;;;5001552;28;5120;-59
2022/11/24 15:23:19;;;;;;;;;;;;;;;;;;5033724;28;5120;-61
2022/11/24 15:25:44;;;;;;;;;;;;;;;;;;5030178;28;2133;-61
2022/11/24 15:28:10;;;;;;;;;;;;;;;;;;5021566;28;5196;-63
2022/11/24 15:30:36;;;;;;;;;;;;;;;;;;5023332;28;4525;-60
2022/11/24 15:33:01;;;;;;;;;;;;;;;;;;5024057;28;5240;-59
2022/11/24 15:35:29;;;;;;;;;;;;;;;;;;5010414;28;5263;-59
2022/11/24 15:37:55;;;;;;;;;;;;;;;;;;5031175;28;5083;-61
2022/11/24 15:40:20;;;;;;;;;;;;;;;;;;5031781;28;1219;-57
2022/11/24 15:42:50;;;;;;;;;;;;;;;;;;5030863;28;5065;-59
2022/11/24 15:45:15;;;;;;;;;;;;;;;;;;5030394;28;5719;-58
2022/11/24 15:47:40;;;;;;;;;;;;;;;;;;5022077;28;5750;-60
2022/11/24 15:50:06;;;;;;;;;;;;;;;;;;5029166;28;5064;-59
2022/11/24 15:52:31;;;;;;;;;;;;;;;;;;5029466;28;2100;-59
2022/11/24 15:54:56;;;;;;;;;;;;;;;;;;5018880;28;5055;-60
2022/11/24 15:57:22;;;;;;;;;;;;;;;;;;5026039;28;5030;-60
2022/11/24 15:59:47;;;;;;;;;;;;;;;;;;5025632;28;5050;-59
2022/11/24 16:02:12;;;;;;;;;;;;;;;;;;5027993;28;5073;-58
2022/11/24 16:04:40;;;;;;;;;;;;;;;;;;5007929;28;2344;-59
2022/11/24 16:07:07;;;;;;;;;;;;;;;;;;5006129;28;5165;-60
2022/11/24 16:09:33;;;;;;;;;;;;;;;;;;5009478;28;4458;-59
2022/11/24 16:11:58;;;;;;;;;;;;;;;;;;4998301;28;5044;-59
2022/11/24 16:14:23;;;;;;;;;;;;;;;;;;5005281;28;5161;-60
2022/11/24 16:16:48;;;;;;;;;;;;;;;;;;5001817;28;2205;-61
2022/11/24 16:19:14;;;;;;;;;;;;;;;;;;5000705;28;6236;-60
2022/11/24 16:21:39;;;;;;;;;;;;;;;;;;5003769;28;4650;-64
2022/11/24 16:24:05;;;;;;;;;;;;;;;;;;5004108;28;4562;-63
2022/11/24 16:26:30;;;;;;;;;;;;;;;;;;5004995;28;4500;-63
2022/11/24 16:28:55;;;;;;;;;;;;;;;;;;5007232;28;5073;-62
2022/11/24 16:31:21;;;;;;;;;;;;;;;;;;5006119;28;2130;-62
2022/11/24 16:33:46;;;;;;;;;;;;;;;;;;4998391;28;5524;-60
2022/11/24 16:36:12;;;;;;;;;;;;;;;;;;5020100;28;4753;-61
2022/11/24 16:38:37;;;;;;;;;;;;;;;;;;5024977;28;5160;-63
2022/11/24 16:41:02;;;;;;;;;;;;;;;;;;5008184;28;5272;-61
2022/11/24 16:43:28;;;;;;;;;;;;;;;;;;5025628;28;2253;-60
2022/11/24 16:46:19;;;;;;;;;;;;;;;;;;5020985;28;5479;-56
2022/11/24 16:48:45;;;;;;;;;;;;;;;;;;5022204;28;4508;-58
2022/11/24 16:51:11;;;;;;;;;;;;;;;;;;5026223;28;4612;-59
2022/11/24 16:53:36;;;;;;;;;;;;;;;;;;5028348;28;5648;-58
2022/11/24 16:56:02;;;;;;;;;;;;;;;;;;5014785;28;4976;-58
2022/11/24 16:58:27;;;;;;;;;;;;;;;;;;5020786;28;2322;-56
2022/11/24 17:00:52;;;;;;;;;;;;;;;;;;5028210;28;4924;-57
2022/11/24 17:03:17;;;;;;;;;;;;;;;;;;5028211;28;5131;-57
2022/11/24 17:05:42;;;;;;;;;;;;;;;;;;5023629;28;4525;-57